Time;durP1;ratioP1;P1;durP2;ratioP2;P2;SDS_P1;SDS_P2;PMS_P1;PMS_P2;Temp;Humidity;BMP_temperature;BMP_pressure;BME280_temperature;BME280_humidity;BME280_pressure;Samples;Min_cycle;Max_cycle;Signal;HPM_P1;HPM_P2
2022/12/04 00:01:40;;;;;;;73.03;32.03;;;3.90;99.90;;;;;;5023905;28;20025;-69
2022/12/04 00:04:06;;;;;;;65.95;30.58;;;3.90;99.90;;;;;;5024908;28;20021;-69
2022/12/04 00:06:34;;;;;;;72.72;31.33;;;3.90;99.90;;;;;;5027359;28;20099;-68
2022/12/04 00:09:00;;;;;;;70.13;30.17;;;4.00;99.90;;;;;;5027922;28;20116;-72
2022/12/04 00:11:29;;;;;;;72.32;31.55;;;3.90;99.90;;;;;;5023833;28;20107;-70
2022/12/04 00:13:55;;;;;;;79.35;32.67;;;3.80;99.90;;;;;;5023696;28;20029;-70
2022/12/04 00:16:23;;;;;;;77.63;30.23;;;3.90;99.90;;;;;;5023786;28;20492;-70
2022/12/04 00:18:49;;;;;;;72.25;31.83;;;3.90;99.90;;;;;;5022814;28;21925;-72
2022/12/04 00:21:16;;;;;;;76.63;31.55;;;3.80;99.90;;;;;;5026592;28;20046;-69
2022/12/04 00:23:43;;;;;;;75.38;31.00;;;3.80;99.90;;;;;;5023396;28;20139;-71
2022/12/04 00:26:19;;;;;;;73.90;31.35;;;3.80;99.90;;;;;;5026494;28;20047;-71
2022/12/04 00:28:45;;;;;;;84.30;32.53;;;3.80;99.90;;;;;;5023700;28;20036;-70
2022/12/04 00:31:14;;;;;;;75.65;31.55;;;3.70;99.90;;;;;;5023748;28;20017;-71
2022/12/04 00:33:40;;;;;;;77.72;32.03;;;3.70;99.90;;;;;;5025680;28;20021;-71
2022/12/04 00:36:09;;;;;;;77.63;31.63;;;3.80;99.90;;;;;;5024756;28;20414;-71
2022/12/04 00:38:35;;;;;;;75.88;32.92;;;3.90;99.90;;;;;;5025450;28;20305;-69
2022/12/04 00:41:01;;;;;;;74.30;31.38;;;3.90;99.90;;;;;;5027844;28;20378;-69
2022/12/04 00:43:27;;;;;;;75.00;30.65;;;4.00;99.90;;;;;;5028538;28;20033;-71
2022/12/04 00:45:53;;;;;;;73.15;30.05;;;4.00;99.90;;;;;;5024312;28;20183;-70
2022/12/04 00:48:18;;;;;;;72.20;30.92;;;3.80;99.90;;;;;;5027341;28;20584;-71
2022/12/04 00:50:44;;;;;;;70.80;30.40;;;3.80;99.90;;;;;;5026261;28;20057;-71
2022/12/04 00:53:10;;;;;;;76.20;31.25;;;3.90;99.90;;;;;;5020033;28;20125;-70
2022/12/04 00:55:40;;;;;;;73.80;32.20;;;3.80;99.90;;;;;;5025719;28;20021;-70
2022/12/04 00:58:06;;;;;;;78.88;34.47;;;3.90;99.90;;;;;;5022672;28;20041;-69
2022/12/04 01:00:36;;;;;;;74.40;32.75;;;3.80;99.90;;;;;;5023446;28;20048;-71
2022/12/04 01:03:03;;;;;;;76.45;31.75;;;3.80;99.90;;;;;;5025057;28;20021;-69
2022/12/04 01:05:28;;;;;;;75.63;30.42;;;3.80;99.90;;;;;;5019985;28;20033;-69
2022/12/04 01:07:54;;;;;;;72.25;30.90;;;3.70;99.90;;;;;;5026190;28;20351;-71
2022/12/04 01:10:20;;;;;;;89.25;32.95;;;3.80;99.90;;;;;;5024855;28;20037;-69
2022/12/04 01:12:48;;;;;;;70.68;30.33;;;3.80;99.90;;;;;;5021331;28;20038;-70
2022/12/04 01:15:14;;;;;;;74.13;32.65;;;3.90;99.90;;;;;;5025703;28;20037;-69
2022/12/04 01:17:39;;;;;;;75.45;31.55;;;3.90;99.90;;;;;;5026735;28;20034;-70
2022/12/04 01:20:05;;;;;;;75.85;32.50;;;3.80;99.90;;;;;;5026683;28;20041;-69
2022/12/04 01:22:31;;;;;;;76.35;32.25;;;3.80;99.90;;;;;;5024354;28;20022;-69
2022/12/04 01:24:57;;;;;;;75.90;32.22;;;3.90;99.90;;;;;;5027438;28;20041;-69
2022/12/04 01:27:23;;;;;;;76.10;31.83;;;3.90;99.90;;;;;;5024453;28;20749;-70
2022/12/04 01:29:49;;;;;;;77.53;32.78;;;3.90;99.90;;;;;;5025307;28;20036;-69
2022/12/04 01:32:15;;;;;;;77.63;32.50;;;4.00;99.90;;;;;;5024372;28;20028;-69
2022/12/04 01:34:43;;;;;;;75.70;32.65;;;4.10;99.90;;;;;;5026781;28;20057;-70
2022/12/04 01:37:08;;;;;;;79.78;33.22;;;4.00;99.90;;;;;;5026261;28;20052;-69
2022/12/04 01:39:37;;;;;;;79.55;32.75;;;3.90;99.90;;;;;;5028368;28;20037;-69
2022/12/04 01:42:04;;;;;;;80.15;31.55;;;3.90;99.90;;;;;;5025184;28;20022;-70
2022/12/04 01:44:30;;;;;;;74.50;31.42;;;4.00;99.90;;;;;;5025896;28;20120;-71
2022/12/04 01:46:58;;;;;;;76.65;33.05;;;4.00;99.90;;;;;;5026558;28;20030;-70
2022/12/04 01:49:38;;;;;;;80.03;34.65;;;4.00;99.90;;;;;;5024117;28;20026;-70
2022/12/04 01:52:09;;;;;;;70.95;30.98;;;4.10;99.90;;;;;;5022939;28;20549;-70
2022/12/04 01:54:41;;;;;;;80.38;32.83;;;4.10;99.90;;;;;;5025289;28;20009;-70
2022/12/04 01:57:15;;;;;;;79.00;33.08;;;4.00;99.90;;;;;;5024165;28;20195;-71
2022/12/04 02:00:04;;;;;;;78.78;32.85;;;4.00;99.90;;;;;;5027645;28;20154;-70
2022/12/04 02:02:33;;;;;;;77.25;31.38;;;3.90;99.90;;;;;;5030720;28;20026;-69
2022/12/04 02:05:01;;;;;;;76.63;32.33;;;4.00;99.90;;;;;;5031564;28;20804;-71
2022/12/04 02:07:27;;;;;;;77.85;32.65;;;3.90;99.90;;;;;;5028633;28;20083;-71
2022/12/04 02:09:54;;;;;;;81.97;33.88;;;3.80;99.90;;;;;;5025624;28;20044;-70
2022/12/04 02:12:33;;;;;;;85.25;36.70;;;3.90;99.90;;;;;;5027810;28;20041;-69
2022/12/04 02:15:08;;;;;;;73.90;32.05;;;3.70;99.90;;;;;;5023504;28;20040;-71
2022/12/04 02:18:16;;;;;;;75.25;33.03;;;3.70;99.90;;;;;;5027585;28;20033;-69
2022/12/04 02:20:57;;;;;;;79.93;34.78;;;3.60;99.90;;;;;;5022962;28;20044;-70
2022/12/04 02:23:43;;;;;;;79.15;35.78;;;3.70;99.90;;;;;;5025232;28;20026;-70
2022/12/04 02:26:21;;;;;;;82.53;35.20;;;3.70;99.90;;;;;;5021941;28;20036;-71
2022/12/04 02:28:50;;;;;;;76.40;31.65;;;3.70;99.90;;;;;;5031613;28;20087;-72
2022/12/04 02:31:20;;;;;;;83.35;33.88;;;3.80;99.90;;;;;;5022118;28;20355;-70
2022/12/04 02:33:58;;;;;;;80.65;33.42;;;3.80;99.90;;;;;;5030436;28;20021;-71
2022/12/04 02:36:29;;;;;;;79.13;31.92;;;3.70;99.90;;;;;;5062841;28;20122;-71
2022/12/04 02:38:55;;;;;;;75.97;31.75;;;3.70;99.90;;;;;;5026972;28;20026;-70
2022/12/04 02:41:35;;;;;;;74.78;30.92;;;3.70;99.90;;;;;;5019860;28;20030;-70
2022/12/04 02:44:14;;;;;;;73.55;32.40;;;3.70;99.90;;;;;;5041910;28;20481;-71
2022/12/04 02:46:44;;;;;;;77.97;34.72;;;3.70;99.90;;;;;;5025033;28;20033;-70
2022/12/04 02:49:26;;;;;;;82.93;32.33;;;3.70;99.90;;;;;;5023188;28;20422;-70
2022/12/04 02:51:54;;;;;;;78.82;32.78;;;3.80;99.90;;;;;;5026077;28;20051;-71
2022/12/04 02:54:33;;;;;;;73.15;32.25;;;3.70;99.90;;;;;;5024798;28;20026;-71
2022/12/04 02:57:01;;;;;;;80.03;32.38;;;3.80;99.90;;;;;;5033017;28;20025;-72
2022/12/04 02:59:43;;;;;;;77.80;32.85;;;3.70;99.90;;;;;;5028828;28;20466;-72
2022/12/04 03:02:20;;;;;;;84.10;33.67;;;3.70;99.90;;;;;;5030594;28;20022;-71
2022/12/04 03:04:49;;;;;;;77.07;34.30;;;3.70;99.90;;;;;;5022093;28;20021;-71
2022/12/04 03:07:20;;;;;;;77.47;33.97;;;3.70;99.90;;;;;;5029898;28;20067;-71
2022/12/04 03:09:58;;;;;;;76.30;31.98;;;3.70;99.90;;;;;;5033683;28;20389;-71
2022/12/04 03:12:51;;;;;;;75.70;33.05;;;3.70;99.90;;;;;;5027879;28;20022;-71
2022/12/04 03:15:26;;;;;;;83.53;35.70;;;3.70;99.90;;;;;;5026718;28;20037;-70
2022/12/04 03:18:00;;;;;;;74.72;31.15;;;3.80;99.90;;;;;;5031379;28;20041;-70
2022/12/04 03:20:28;;;;;;;84.38;33.67;;;3.70;99.90;;;;;;5031798;28;20021;-71
2022/12/04 03:22:59;;;;;;;74.07;31.42;;;3.80;99.90;;;;;;5021424;28;20034;-71
2022/12/04 03:25:42;;;;;;;73.55;32.80;;;3.80;99.90;;;;;;5027135;28;20481;-71
2022/12/04 03:28:11;;;;;;;;;;;3.70;99.90;;;;;;5024285;28;20021;-71
2022/12/04 03:30:43;;;;;;;80.90;33.83;;;3.70;99.90;;;;;;5029681;28;20392;-69
2022/12/04 03:33:15;;;;;;;82.28;33.83;;;3.70;99.90;;;;;;5023840;28;20484;-70
2022/12/04 03:35:54;;;;;;;78.57;33.22;;;3.70;99.90;;;;;;5027606;28;20029;-71
2022/12/04 03:38:40;;;;;;;79.65;33.60;;;3.70;99.90;;;;;;5025012;28;20033;-70
2022/12/04 03:41:24;;;;;;;79.88;33.05;;;3.70;99.90;;;;;;5036498;28;20261;-70
2022/12/04 03:44:09;;;;;;;77.43;32.50;;;3.50;99.90;;;;;;5030182;28;20030;-70
2022/12/04 03:46:40;;;;;;;77.22;33.38;;;3.50;99.90;;;;;;5027100;28;20034;-69
2022/12/04 03:49:22;;;;;;;85.88;37.42;;;3.50;99.90;;;;;;5023182;28;20032;-71
2022/12/04 03:51:53;;;;;;;77.05;32.00;;;3.50;99.90;;;;;;5022712;28;20030;-71
2022/12/04 03:54:33;;;;;;;83.00;34.63;;;3.40;99.90;;;;;;5023340;28;20030;-69
2022/12/04 03:57:05;;;;;;;79.88;33.75;;;3.50;99.90;;;;;;5029928;28;20021;-70
2022/12/04 03:59:46;;;;;;;80.00;34.38;;;3.40;99.90;;;;;;5032766;28;20071;-70
2022/12/04 04:02:16;;;;;;;85.35;35.97;;;3.40;99.90;;;;;;5030552;28;20108;-70
2022/12/04 04:04:48;;;;;;;88.50;35.30;;;3.40;99.90;;;;;;5029212;28;20363;-70
2022/12/04 04:07:21;;;;;;;75.83;33.10;;;3.40;99.90;;;;;;5032556;28;20062;-70
2022/12/04 04:09:52;;;;;;;82.50;34.75;;;3.50;99.90;;;;;;5030927;28;20064;-71
2022/12/04 04:12:22;;;;;;;80.90;34.75;;;3.40;99.90;;;;;;5031914;28;20025;-69
2022/12/04 04:26:06;;;;;;;79.10;33.80;;;3.50;99.90;;;;;;5023026;28;20052;-70
2022/12/04 04:28:35;;;;;;;83.93;33.67;;;3.50;99.90;;;;;;5028778;28;20397;-70
2022/12/04 04:31:06;;;;;;;75.88;33.97;;;3.60;99.90;;;;;;5034836;28;20025;-70
2022/12/04 04:33:37;;;;;;;75.18;33.80;;;3.60;99.90;;;;;;5032362;28;20025;-71
2022/12/04 04:36:30;;;;;;;75.28;32.67;;;3.40;99.90;;;;;;5026703;28;20037;-70
2022/12/04 04:38:55;;;;;;;;;;;3.50;99.90;;;;;;5031853;28;20414;-70
2022/12/04 04:41:48;;;;;;;84.20;36.60;;;3.50;99.90;;;;;;5031653;28;19915;-70
2022/12/04 04:44:39;;;;;;;77.88;33.92;;;3.50;99.90;;;;;;5032725;28;20108;-69
2022/12/04 04:47:08;;;;;;;89.80;34.65;;;3.50;99.90;;;;;;5019370;28;20490;-70
2022/12/04 04:49:36;;;;;;;84.65;33.20;;;3.50;99.90;;;;;;5026243;28;20037;-70
2022/12/04 04:52:02;;;;;;;85.68;34.10;;;3.50;99.90;;;;;;5025486;28;20024;-70
2022/12/04 04:54:30;;;;;;;82.13;33.60;;;3.50;99.90;;;;;;5029303;28;20052;-71
2022/12/04 04:56:56;;;;;;;90.38;37.03;;;3.50;99.90;;;;;;5030120;28;20020;-70
2022/12/04 04:59:21;;;;;;;81.00;36.55;;;3.60;99.90;;;;;;5029089;28;20034;-70
2022/12/04 05:01:47;;;;;;;85.80;36.42;;;3.60;99.90;;;;;;5030418;28;20044;-70
2022/12/04 05:04:13;;;;;;;79.78;35.20;;;3.60;99.90;;;;;;5028766;28;20028;-69
2022/12/04 05:06:38;;;;;;;84.25;35.22;;;3.70;99.90;;;;;;5018484;28;20024;-70
2022/12/04 05:09:04;;;;;;;81.55;34.90;;;3.70;99.90;;;;;;5021728;28;20498;-70
2022/12/04 05:11:30;;;;;;;84.43;36.67;;;3.80;99.90;;;;;;5020480;28;20045;-70
2022/12/04 05:13:56;;;;;;;81.60;36.58;;;3.70;99.90;;;;;;5024300;28;20021;-70
2022/12/04 05:16:22;;;;;;;86.20;36.92;;;3.70;99.90;;;;;;5022736;28;20035;-70
2022/12/04 05:21:33;;;;;;;86.18;35.78;;;3.60;99.90;;;;;;5021236;28;20048;-70
2022/12/04 05:23:59;;;;;;;81.32;35.70;;;3.60;99.90;;;;;;5025816;28;20064;-69
2022/12/04 05:26:25;;;;;;;80.70;37.38;;;3.60;99.90;;;;;;5025730;28;20053;-70
2022/12/04 05:28:50;;;;;;;80.80;35.80;;;3.50;99.90;;;;;;5024396;28;20033;-69
2022/12/04 05:31:16;;;;;;;82.43;35.28;;;3.50;99.90;;;;;;5025269;28;20022;-71
2022/12/04 05:33:42;;;;;;;89.68;37.88;;;3.60;99.90;;;;;;5021630;28;20030;-71
2022/12/04 05:36:09;;;;;;;85.97;34.95;;;3.60;99.90;;;;;;5026592;28;20053;-70
2022/12/04 05:38:35;;;;;;;84.75;34.88;;;3.60;99.90;;;;;;5023387;28;20042;-70
2022/12/04 05:41:03;;;;;;;77.40;34.33;;;3.60;99.90;;;;;;5031214;28;20028;-70
2022/12/04 05:43:29;;;;;;;81.30;36.03;;;3.70;99.90;;;;;;5029006;28;20436;-70
2022/12/04 05:45:59;;;;;;;83.35;34.55;;;3.60;99.90;;;;;;5026016;28;21181;-71
2022/12/04 05:48:24;;;;;;;88.35;38.30;;;3.70;99.90;;;;;;5024842;28;20018;-70
2022/12/04 05:50:50;;;;;;;83.43;36.83;;;3.70;99.90;;;;;;5032705;28;20343;-71
2022/12/04 05:53:15;;;;;;;85.53;35.50;;;3.60;99.90;;;;;;5023348;28;20029;-71
2022/12/04 05:55:41;;;;;;;83.28;35.10;;;3.60;99.90;;;;;;5030511;28;20022;-70
2022/12/04 05:58:06;;;;;;;84.38;37.58;;;3.60;99.90;;;;;;5030721;28;20073;-70
2022/12/04 06:00:32;;;;;;;80.95;34.60;;;3.60;99.90;;;;;;5028315;28;20021;-70
2022/12/04 06:02:57;;;;;;;82.18;35.60;;;3.50;99.90;;;;;;5026536;28;20123;-70
2022/12/04 06:05:23;;;;;;;87.85;37.17;;;3.50;99.90;;;;;;5029130;28;20029;-71
2022/12/04 06:07:49;;;;;;;89.50;37.47;;;3.50;99.90;;;;;;5020977;28;20030;-70
2022/12/04 06:10:14;;;;;;;84.43;38.22;;;3.50;99.90;;;;;;5026824;28;20390;-70
2022/12/04 06:12:40;;;;;;;92.70;38.22;;;3.50;99.90;;;;;;5032527;28;20033;-70
2022/12/04 06:15:06;;;;;;;84.28;36.17;;;3.60;99.90;;;;;;5027362;28;20021;-70
2022/12/04 06:17:31;;;;;;;88.72;39.78;;;3.60;99.90;;;;;;5032089;28;20454;-71
2022/12/04 06:19:57;;;;;;;86.43;34.70;;;3.60;99.90;;;;;;5030440;28;20034;-70
2022/12/04 06:22:23;;;;;;;85.28;36.22;;;3.50;99.90;;;;;;5024503;28;20543;-69
2022/12/04 06:24:48;;;;;;;88.82;36.60;;;3.50;99.90;;;;;;5025700;28;20036;-70
2022/12/04 06:27:14;;;;;;;87.35;38.08;;;3.60;99.90;;;;;;5027904;28;20026;-70
2022/12/04 06:29:39;;;;;;;85.85;37.83;;;3.60;99.90;;;;;;5025320;28;20034;-69
2022/12/04 06:32:05;;;;;;;93.63;37.67;;;3.60;99.90;;;;;;5026101;28;20477;-70
2022/12/04 06:34:31;;;;;;;81.80;36.33;;;3.60;99.90;;;;;;5030007;28;20025;-71
2022/12/04 06:36:56;;;;;;;85.28;36.58;;;3.60;99.90;;;;;;5020771;28;20112;-70
2022/12/04 06:39:22;;;;;;;95.07;38.42;;;3.50;99.90;;;;;;5029548;28;20049;-71
2022/12/04 06:41:48;;;;;;;85.57;36.65;;;3.50;99.90;;;;;;5031880;28;20535;-70
2022/12/04 06:44:14;;;;;;;88.38;36.90;;;3.40;99.90;;;;;;5035181;28;20531;-70
2022/12/04 06:46:40;;;;;;;84.18;35.97;;;3.40;99.90;;;;;;5029903;28;20042;-70
2022/12/04 06:49:06;;;;;;;93.80;37.67;;;3.60;99.90;;;;;;5024221;28;20053;-70
2022/12/04 06:51:36;;;;;;;92.20;39.17;;;3.70;99.90;;;;;;5024260;28;20056;-69
2022/12/04 06:54:02;;;;;;;88.97;38.15;;;3.60;99.90;;;;;;5023461;28;20033;-70
2022/12/04 06:56:30;;;;;;;85.15;38.53;;;3.60;99.90;;;;;;5030361;28;20026;-70
2022/12/04 06:58:58;;;;;;;83.40;35.75;;;3.50;99.90;;;;;;5024128;28;20110;-70
2022/12/04 07:01:29;;;;;;;89.00;36.17;;;3.50;99.90;;;;;;5027853;28;20100;-70
2022/12/04 07:03:56;;;;;;;84.75;35.72;;;3.50;99.90;;;;;;5029552;28;20032;-70
2022/12/04 07:06:27;;;;;;;79.55;35.60;;;3.60;99.90;;;;;;5025957;28;20029;-70
2022/12/04 07:09:00;;;;;;;82.68;35.00;;;3.60;99.90;;;;;;5025229;28;20474;-70
2022/12/04 07:11:27;;;;;;;89.07;36.63;;;3.60;99.90;;;;;;5027489;28;20052;-70
2022/12/04 07:13:54;;;;;;;82.80;37.20;;;3.70;99.90;;;;;;5028780;28;20026;-70
2022/12/04 07:16:21;;;;;;;86.18;37.83;;;3.50;99.90;;;;;;5030637;28;20025;-70
2022/12/04 07:18:52;;;;;;;83.53;36.60;;;3.60;99.90;;;;;;5027565;28;20099;-70
2022/12/04 07:21:20;;;;;;;81.60;34.20;;;3.60;99.90;;;;;;5024987;28;20037;-71
2022/12/04 07:23:50;;;;;;;82.68;37.88;;;3.60;99.90;;;;;;5031677;28;20029;-70
2022/12/04 07:26:16;;;;;;;83.68;35.92;;;3.60;99.90;;;;;;5027581;28;20022;-71
2022/12/04 07:28:44;;;;;;;84.45;34.00;;;3.60;99.90;;;;;;5021712;28;20033;-69
2022/12/04 07:31:12;;;;;;;81.63;34.90;;;3.60;99.90;;;;;;5025355;28;20499;-70
2022/12/04 07:33:39;;;;;;;81.00;32.63;;;3.70;99.90;;;;;;5022624;28;20478;-70
2022/12/04 07:36:06;;;;;;;90.15;38.10;;;3.70;99.90;;;;;;5020090;28;20028;-69
2022/12/04 07:38:33;;;;;;;78.90;33.45;;;3.70;99.90;;;;;;5021399;28;20045;-70
2022/12/04 07:41:00;;;;;;;77.40;34.25;;;3.60;99.90;;;;;;5027817;28;20421;-70
2022/12/04 07:43:28;;;;;;;76.18;33.45;;;3.50;99.90;;;;;;5019680;28;20104;-69
2022/12/04 07:45:53;;;;;;;78.80;34.03;;;3.60;99.90;;;;;;5023681;28;20049;-70
2022/12/04 07:48:19;;;;;;;79.00;33.88;;;3.50;99.90;;;;;;5022874;28;20108;-70
2022/12/04 07:50:45;;;;;;;76.18;32.55;;;3.60;99.90;;;;;;5026292;28;20355;-70
2022/12/04 07:53:11;;;;;;;73.13;32.33;;;3.60;99.90;;;;;;5026682;28;20351;-71
2022/12/04 07:55:36;;;;;;;75.15;32.88;;;3.50;99.90;;;;;;5026022;28;20033;-71
2022/12/04 07:58:02;;;;;;;70.55;30.95;;;3.60;99.90;;;;;;5024954;28;20021;-71
2022/12/04 08:00:28;;;;;;;74.43;31.33;;;3.50;99.90;;;;;;5023082;28;20026;-69
2022/12/04 08:02:54;;;;;;;73.82;32.05;;;3.50;99.90;;;;;;5023159;28;20032;-69
2022/12/04 08:05:19;;;;;;;78.93;33.15;;;3.50;99.90;;;;;;5027615;28;20022;-71
2022/12/04 08:07:45;;;;;;;70.28;30.85;;;3.60;99.90;;;;;;5025169;28;20071;-70
2022/12/04 08:10:11;;;;;;;78.97;33.33;;;3.50;99.90;;;;;;5023179;28;20036;-70
2022/12/04 08:12:37;;;;;;;71.78;31.67;;;3.40;99.90;;;;;;5026059;28;20020;-70
2022/12/04 08:15:04;;;;;;;76.35;31.35;;;3.40;99.90;;;;;;5026817;28;20025;-70
2022/12/04 08:17:30;;;;;;;70.50;31.13;;;3.40;99.90;;;;;;5024556;28;20045;-71
2022/12/04 08:19:55;;;;;;;69.90;30.00;;;3.50;99.90;;;;;;5021684;28;20495;-70
2022/12/04 08:22:21;;;;;;;67.40;29.33;;;3.40;99.90;;;;;;5022246;28;20033;-70
2022/12/04 08:24:46;;;;;;;66.60;30.38;;;3.50;99.90;;;;;;5030776;28;20064;-69
2022/12/04 08:27:12;;;;;;;68.40;30.30;;;3.50;99.90;;;;;;5026316;28;20026;-70
2022/12/04 08:29:38;;;;;;;75.95;30.90;;;3.70;99.90;;;;;;5021443;28;20494;-69
2022/12/04 08:32:04;;;;;;;65.53;29.02;;;3.70;99.90;;;;;;5029327;28;20071;-69
2022/12/04 08:34:30;;;;;;;63.80;28.95;;;3.70;99.90;;;;;;5025622;28;20044;-69
2022/12/04 08:36:55;;;;;;;66.70;29.95;;;3.70;99.90;;;;;;5030663;28;20470;-70
2022/12/04 08:39:21;;;;;;;64.05;29.35;;;3.80;99.90;;;;;;5020316;28;20041;-69
2022/12/04 08:41:46;;;;;;;62.67;29.05;;;3.60;99.90;;;;;;5025213;28;20063;-70
2022/12/04 08:44:12;;;;;;;67.28;30.58;;;3.70;99.90;;;;;;5028652;28;20037;-71
2022/12/04 08:46:38;;;;;;;63.60;30.77;;;3.70;99.90;;;;;;5029059;28;20030;-70
2022/12/04 08:49:04;;;;;;;65.30;29.65;;;3.60;99.90;;;;;;5020228;28;20105;-69
2022/12/04 08:51:33;;;;;;;62.63;28.63;;;3.60;99.90;;;;;;5027737;28;20021;-69
2022/12/04 08:54:01;;;;;;;62.95;28.45;;;3.60;99.90;;;;;;5022909;28;20103;-69
2022/12/04 08:56:29;;;;;;;64.32;29.13;;;3.60;99.90;;;;;;5025723;28;20040;-70
2022/12/04 08:58:55;;;;;;;57.67;26.70;;;3.60;99.90;;;;;;5021858;28;20132;-71
2022/12/04 09:01:21;;;;;;;64.57;29.52;;;3.60;99.90;;;;;;5027051;28;20045;-69
2022/12/04 09:03:47;;;;;;;65.30;28.02;;;3.70;99.90;;;;;;5025966;28;20402;-69
2022/12/04 09:06:14;;;;;;;59.53;28.02;;;3.80;99.90;;;;;;5019385;28;20151;-70
2022/12/04 09:08:40;;;;;;;55.75;25.00;;;3.80;99.90;;;;;;5029886;28;20025;-71
2022/12/04 09:11:10;;;;;;;59.00;28.58;;;3.80;99.90;;;;;;5033191;28;20112;-69
2022/12/04 09:13:36;;;;;;;56.92;26.83;;;3.80;99.90;;;;;;5031825;28;20499;-69
2022/12/04 09:16:04;;;;;;;51.72;25.10;;;3.80;99.90;;;;;;5031144;28;20064;-71
2022/12/04 09:18:30;;;;;;;57.08;27.20;;;3.80;99.90;;;;;;5024980;28;20124;-70
2022/12/04 09:20:57;;;;;;;52.67;24.65;;;3.80;99.90;;;;;;5026663;28;20100;-70
2022/12/04 09:23:24;;;;;;;55.72;26.95;;;3.80;99.90;;;;;;5021420;28;20017;-70
2022/12/04 09:25:50;;;;;;;55.58;27.08;;;3.80;99.90;;;;;;5026817;28;20022;-69
2022/12/04 09:28:15;;;;;;;54.97;26.25;;;3.80;99.90;;;;;;5032506;28;20063;-70
2022/12/04 09:30:41;;;;;;;54.40;24.05;;;3.90;99.90;;;;;;5030236;28;20061;-71
2022/12/04 09:33:06;;;;;;;64.10;27.65;;;3.90;99.90;;;;;;5030418;28;20444;-70
2022/12/04 09:35:33;;;;;;;54.33;25.48;;;3.90;99.90;;;;;;5034588;28;20029;-71
2022/12/04 09:37:58;;;;;;;56.85;25.65;;;4.00;99.90;;;;;;5025731;28;20120;-70
2022/12/04 09:40:27;;;;;;;51.97;25.30;;;3.90;99.90;;;;;;5030551;28;20112;-69
2022/12/04 09:43:05;;;;;;;52.40;25.45;;;3.80;99.90;;;;;;5028476;28;20022;-70
2022/12/04 09:45:44;;;;;;;52.83;26.52;;;3.90;99.90;;;;;;5032755;28;20465;-69
2022/12/04 09:48:11;;;;;;;52.45;24.27;;;3.90;99.90;;;;;;5027033;28;20470;-70
2022/12/04 09:50:41;;;;;;;61.10;28.60;;;4.00;99.90;;;;;;5033590;28;20443;-71
2022/12/04 09:53:12;;;;;;;60.72;27.85;;;4.00;99.90;;;;;;5028375;28;20091;-69
2022/12/04 09:55:43;;;;;;;61.60;29.17;;;4.00;99.90;;;;;;5029375;28;20033;-70
2022/12/04 09:58:17;;;;;;;63.03;29.85;;;3.90;99.90;;;;;;5035638;28;20580;-71
2022/12/04 10:00:47;;;;;;;60.10;29.50;;;3.80;99.90;;;;;;5026173;28;20037;-70
2022/12/04 10:03:15;;;;;;;65.03;30.27;;;3.80;99.90;;;;;;5029751;28;20014;-70
2022/12/04 10:06:11;;;;;;;67.65;32.97;;;4.00;99.90;;;;;;5026119;28;20087;-70
2022/12/04 10:08:40;;;;;;;65.18;30.33;;;3.90;99.90;;;;;;5031698;28;20033;-70
2022/12/04 10:11:08;;;;;;;68.00;34.00;;;4.00;99.90;;;;;;5035829;28;20438;-71
2022/12/04 10:13:50;;;;;;;68.75;35.03;;;3.90;99.90;;;;;;5026548;28;20022;-72
2022/12/04 10:16:32;;;;;;;70.28;35.42;;;3.80;99.90;;;;;;5025929;28;20517;-71
2022/12/04 10:19:02;;;;;;;70.53;35.97;;;3.80;99.90;;;;;;5024562;28;20497;-71
2022/12/04 10:22:00;;;;;;;69.57;36.40;;;3.80;99.90;;;;;;5020730;28;20022;-71
2022/12/04 10:24:50;;;;;;;73.05;36.67;;;3.80;99.90;;;;;;5007318;28;20041;-71
2022/12/04 10:27:27;;;;;;;71.60;35.95;;;3.80;99.90;;;;;;5028252;28;20474;-71
2022/12/04 10:30:19;;;;;;;71.75;36.13;;;3.90;99.90;;;;;;5032921;28;20473;-72
2022/12/04 10:32:45;;;;;;;75.65;37.90;;;3.90;99.90;;;;;;5025265;28;20021;-71
2022/12/04 10:35:25;;;;;;;68.22;36.53;;;3.90;99.90;;;;;;5025396;28;20043;-72
2022/12/04 10:38:09;;;;;;;69.63;35.00;;;4.00;99.90;;;;;;5030341;28;20059;-72
2022/12/04 10:40:45;;;;;;;68.50;34.58;;;3.80;99.90;;;;;;5025288;28;20281;-72
2022/12/04 10:43:17;;;;;;;69.55;36.70;;;3.90;99.90;;;;;;5024030;28;20123;-72
2022/12/04 10:45:43;;;;;;;71.93;35.65;;;3.90;99.90;;;;;;5026640;28;20030;-72
2022/12/04 10:48:23;;;;;;;67.80;35.20;;;4.00;99.90;;;;;;5031853;28;20026;-72
2022/12/04 10:50:48;;;;;;;59.53;32.75;;;4.20;99.90;;;;;;5021514;28;20029;-72
2022/12/04 10:53:15;;;;;;;58.35;30.92;;;4.10;99.90;;;;;;5030469;28;20030;-71
2022/12/04 10:55:41;;;;;;;57.05;28.92;;;4.00;99.90;;;;;;5027004;28;20465;-70
2022/12/04 10:58:19;;;;;;;51.38;29.25;;;4.00;99.90;;;;;;5026491;28;20045;-70
2022/12/04 11:00:59;;;;;;;55.05;29.63;;;3.90;99.90;;;;;;5023911;28;20470;-71
2022/12/04 11:03:28;;;;;;;54.72;29.17;;;4.00;99.90;;;;;;5030218;28;20600;-73
2022/12/04 11:06:03;;;;;;;53.22;30.40;;;3.80;99.90;;;;;;5023760;28;20025;-71
2022/12/04 11:08:35;;;;;;;54.20;30.30;;;3.90;99.90;;;;;;5030142;28;20036;-69
2022/12/04 11:11:07;;;;;;;51.90;28.90;;;3.80;99.90;;;;;;5025541;28;20478;-70
2022/12/04 11:13:33;;;;;;;58.28;29.02;;;3.70;99.90;;;;;;5025927;28;20030;-69
2022/12/04 11:15:59;;;;;;;49.03;27.88;;;3.70;99.90;;;;;;5023096;28;20026;-70
2022/12/04 11:18:28;;;;;;;53.13;28.33;;;3.70;99.90;;;;;;5028612;28;20037;-72
2022/12/04 11:21:06;;;;;;;51.90;30.90;;;3.80;99.90;;;;;;5027266;28;20022;-69
2022/12/04 11:23:47;;;;;;;50.15;29.10;;;3.80;99.90;;;;;;5024170;28;20034;-70
2022/12/04 11:26:14;;;;;;;48.13;27.20;;;3.70;99.90;;;;;;5030826;28;20071;-72
2022/12/04 11:28:45;;;;;;;50.20;30.70;;;3.70;99.90;;;;;;5033898;28;20531;-72
2022/12/04 11:31:17;;;;;;;52.78;32.40;;;3.70;99.90;;;;;;5025830;28;20069;-72
2022/12/04 11:33:59;;;;;;;53.22;32.72;;;3.70;99.90;;;;;;5028867;28;20541;-72
2022/12/04 11:36:34;;;;;;;48.08;29.58;;;3.70;99.90;;;;;;5021265;28;20686;-72
2022/12/04 11:39:14;;;;;;;50.00;30.05;;;3.70;99.90;;;;;;5021338;28;20025;-72
2022/12/04 11:41:40;;;;;;;48.03;28.98;;;3.70;99.90;;;;;;5032263;28;20451;-70
2022/12/04 11:44:19;;;;;;;48.63;29.00;;;3.70;99.90;;;;;;5023411;28;20026;-70
2022/12/04 11:46:54;;;;;;;52.22;28.73;;;3.70;99.90;;;;;;5019803;28;20037;-69
2022/12/04 11:49:25;;;;;;;50.10;28.67;;;3.80;99.90;;;;;;5003152;28;20053;-71
2022/12/04 11:52:01;;;;;;;52.47;30.08;;;3.90;99.90;;;;;;5024959;28;20556;-68
2022/12/04 11:54:46;;;;;;;46.72;26.10;;;4.00;99.90;;;;;;5025334;28;20031;-71
2022/12/04 11:57:35;;;;;;;43.10;25.02;;;3.90;99.90;;;;;;5039031;28;20104;-69
2022/12/04 12:00:14;;;;;;;48.53;26.77;;;4.00;99.90;;;;;;5026521;28;20041;-69
2022/12/04 12:02:49;;;;;;;45.20;25.25;;;3.90;99.90;;;;;;5026408;28;20029;-69
2022/12/04 12:05:26;;;;;;;42.42;25.60;;;3.90;99.90;;;;;;5022743;28;20087;-69
2022/12/04 12:08:18;;;;;;;56.72;25.35;;;4.00;99.90;;;;;;5024071;28;20025;-69
2022/12/04 12:10:47;;;;;;;50.60;25.60;;;4.00;99.90;;;;;;5029374;28;20025;-70
2022/12/04 12:13:24;;;;;;;47.05;26.08;;;4.00;99.90;;;;;;5023352;28;20060;-71
2022/12/04 12:16:29;;;;;;;47.35;26.67;;;4.00;99.90;;;;;;5036863;28;20041;-71
2022/12/04 12:19:20;;;;;;;45.17;26.33;;;3.90;99.90;;;;;;5023836;28;20037;-69
2022/12/04 12:22:20;;;;;;;49.00;28.13;;;4.00;99.90;;;;;;5022521;28;20049;-71
2022/12/04 12:25:19;;;;;;;45.10;26.52;;;3.90;99.90;;;;;;5025916;28;20033;-71
2022/12/04 12:28:00;;;;;;;47.83;26.77;;;4.00;99.90;;;;;;5022386;28;20026;-71
2022/12/04 12:30:30;;;;;;;45.03;27.38;;;4.00;99.90;;;;;;5022982;28;20424;-70
2022/12/04 12:33:07;;;;;;;46.80;26.20;;;4.10;99.90;;;;;;5022633;28;20026;-70
2022/12/04 12:36:01;;;;;;;43.47;26.02;;;4.00;99.90;;;;;;5026229;28;20038;-71
2022/12/04 12:38:33;;;;;;;45.67;26.83;;;3.90;99.90;;;;;;5025852;28;20041;-70
2022/12/04 12:41:05;;;;;;;41.08;25.02;;;3.90;99.90;;;;;;5025496;28;20057;-71
2022/12/04 12:43:34;;;;;;;41.45;24.70;;;3.90;99.90;;;;;;5023484;28;20029;-71
2022/12/04 12:46:11;;;;;;;43.60;26.10;;;3.90;99.90;;;;;;5025670;28;20037;-70
2022/12/04 12:48:49;;;;;;;41.50;23.90;;;3.90;99.90;;;;;;5027507;28;20389;-72
2022/12/04 12:51:33;;;;;;;38.60;23.88;;;3.90;99.90;;;;;;5040491;28;20026;-72
2022/12/04 12:54:34;;;;;;;44.42;26.08;;;3.90;99.90;;;;;;5025500;28;20488;-69
2022/12/04 12:57:09;;;;;;;40.08;24.38;;;3.90;99.90;;;;;;5023818;28;20032;-69
2022/12/04 12:59:49;;;;;;;43.33;25.02;;;3.90;99.90;;;;;;5022196;28;20104;-71
2022/12/04 13:02:29;;;;;;;42.58;24.98;;;3.90;99.90;;;;;;5026205;28;20021;-70
2022/12/04 13:04:59;;;;;;;43.03;25.17;;;3.80;99.90;;;;;;5025625;28;20029;-72
2022/12/04 13:07:36;;;;;;;44.55;25.15;;;4.00;99.90;;;;;;5024248;28;20025;-71
2022/12/04 13:10:24;;;;;;;48.10;26.45;;;4.00;99.90;;;;;;5027405;28;20762;-69
2022/12/04 13:13:01;;;;;;;43.80;25.90;;;4.10;99.90;;;;;;5026914;28;20116;-71